PASV/SVW METAR and TAF weather

Enter ICAO airport designator
Station Type Date Time Source
PASV METAR 2019/12/14 18:55 UTC NOAA

PASV 141855Z AUTO 07007KT 040V120 10SM FEW075 01/M07 A2941 RMK AO2 SLP973 T00101075


Station Type Date Time Source
PASV Decoded METAR 2019/12/14 18:55 UTC NOAA

Sparrevohn Airways Facilities Sector, AK, United States (PASV) 61-06N 155-34W
Dec 14, 2019 - 01:55 PM EST / 2019.12.14 1855 UTC
Wind: from the ENE (070 degrees) at 8 MPH (7 KT) (direction variable):0
Visibility: 10 mile(s):0
Sky conditions: mostly clear
Temperature: 33.8 F (1.0 C)
Windchill: 26 F (-3 C):1
Dew Point: 18.5 F (-7.5 C)
Relative Humidity: 53%
Pressure (altimeter): 29.41 in. Hg (995 hPa)
ob: PASV 141855Z AUTO 07007KT 040V120 10SM FEW075 01/M07 A2941 RMK AO2 SLP973 T00101075
cycle: 19

Station Type Date Time Source
PASV TAF 2012/01/12 14:57 UTC NOAA

TAF
AMD PASV 1214/1320 33010G15KT 4800 -SN BLSN SCT003 SCT110 QNH2984INS
BECMG 1221/1222 VRB06KT 9999 NSW FEW010 SCT110 QNH3000INS LIMITED METWATCH TM25/1300Z TM37/1315Z
AMD 121453

Example: see airport list